Terminal Aerodrome Forecast
Issued by NWS Tallahassee, FL

Home | Current Version | Previous Version | Text Only | Print | Product List | Glossary On
Versions: 1 2 3 4 5 6 7 8 9 10 11 12 13
846
FTUS42 KTAE 201740 AAA
TAFTLH
TAF AMD
KTLH 201740Z 2018/2118 26006KT P6SM VCSH BKN040
      TEMPO 2018/2019 4SM RA BR
     FM201900 24006KT P6SM TS BKN040CB
     FM210000 00000KT P6SM BKN250=

USA.gov is the U.S. government's official web portal to all federal, state and local government web resources and services.